sensor_id;sensor_type;location;lat;lon;timestamp;P1;durP1;ratioP1;P2;durP2;ratioP2
3985;SDS011;2007;48.750;9.278;2024-01-30T00:00:33;6.13;;;5.40;;
3985;SDS011;2007;48.750;9.278;2024-01-30T00:03:01;5.40;;;4.90;;
3985;SDS011;2007;48.750;9.278;2024-01-30T00:05:29;6.80;;;5.60;;
3985;SDS011;2007;48.750;9.278;2024-01-30T00:07:57;6.90;;;5.13;;
3985;SDS011;2007;48.750;9.278;2024-01-30T00:10:25;6.50;;;5.87;;
3985;SDS011;2007;48.750;9.278;2024-01-30T00:12:54;6.67;;;5.53;;
3985;SDS011;2007;48.750;9.278;2024-01-30T00:15:23;6.17;;;4.77;;
3985;SDS011;2007;48.750;9.278;2024-01-30T00:17:51;7.70;;;6.00;;
3985;SDS011;2007;48.750;9.278;2024-01-30T00:20:20;7.63;;;5.47;;
3985;SDS011;2007;48.750;9.278;2024-01-30T00:22:48;5.57;;;5.07;;
3985;SDS011;2007;48.750;9.278;2024-01-30T00:25:16;6.17;;;5.20;;
3985;SDS011;2007;48.750;9.278;2024-01-30T00:27:44;6.93;;;5.37;;
3985;SDS011;2007;48.750;9.278;2024-01-30T00:30:14;5.77;;;5.17;;
3985;SDS011;2007;48.750;9.278;2024-01-30T00:32:42;6.57;;;5.60;;
3985;SDS011;2007;48.750;9.278;2024-01-30T00:35:10;6.10;;;5.37;;
3985;SDS011;2007;48.750;9.278;2024-01-30T00:37:38;5.80;;;5.20;;
3985;SDS011;2007;48.750;9.278;2024-01-30T00:40:06;5.70;;;4.93;;
3985;SDS011;2007;48.750;9.278;2024-01-30T00:42:36;6.40;;;5.80;;
3985;SDS011;2007;48.750;9.278;2024-01-30T00:45:04;6.30;;;5.60;;
3985;SDS011;2007;48.750;9.278;2024-01-30T00:47:34;6.77;;;4.97;;
3985;SDS011;2007;48.750;9.278;2024-01-30T00:50:02;6.70;;;5.33;;
3985;SDS011;2007;48.750;9.278;2024-01-30T00:52:31;6.63;;;5.47;;
3985;SDS011;2007;48.750;9.278;2024-01-30T00:54:59;5.33;;;4.83;;
3985;SDS011;2007;48.750;9.278;2024-01-30T00:57:28;6.20;;;5.70;;
3985;SDS011;2007;48.750;9.278;2024-01-30T00:59:56;5.80;;;5.20;;
3985;SDS011;2007;48.750;9.278;2024-01-30T01:02:24;7.33;;;4.73;;
3985;SDS011;2007;48.750;9.278;2024-01-30T01:04:54;5.37;;;4.87;;
3985;SDS011;2007;48.750;9.278;2024-01-30T01:07:22;6.93;;;5.37;;
3985;SDS011;2007;48.750;9.278;2024-01-30T01:09:49;5.50;;;4.60;;
3985;SDS011;2007;48.750;9.278;2024-01-30T01:12:17;5.60;;;5.10;;
3985;SDS011;2007;48.750;9.278;2024-01-30T01:14:45;5.40;;;4.90;;
3985;SDS011;2007;48.750;9.278;2024-01-30T01:17:13;5.47;;;4.80;;
3985;SDS011;2007;48.750;9.278;2024-01-30T01:19:41;7.50;;;5.83;;
3985;SDS011;2007;48.750;9.278;2024-01-30T01:22:11;5.40;;;4.90;;
3985;SDS011;2007;48.750;9.278;2024-01-30T01:24:39;5.63;;;4.97;;
3985;SDS011;2007;48.750;9.278;2024-01-30T01:27:07;6.70;;;5.33;;
3985;SDS011;2007;48.750;9.278;2024-01-30T01:29:35;5.87;;;5.23;;
3985;SDS011;2007;48.750;9.278;2024-01-30T01:32:03;5.27;;;4.77;;
3985;SDS011;2007;48.750;9.278;2024-01-30T01:34:31;7.33;;;5.30;;
3985;SDS011;2007;48.750;9.278;2024-01-30T01:37:00;6.10;;;5.23;;
3985;SDS011;2007;48.750;9.278;2024-01-30T01:39:29;6.97;;;5.67;;
3985;SDS011;2007;48.750;9.278;2024-01-30T01:41:57;8.07;;;5.40;;
3985;SDS011;2007;48.750;9.278;2024-01-30T01:44:25;7.20;;;5.83;;
3985;SDS011;2007;48.750;9.278;2024-01-30T01:46:54;6.03;;;5.30;;
3985;SDS011;2007;48.750;9.278;2024-01-30T01:49:23;5.23;;;4.70;;
3985;SDS011;2007;48.750;9.278;2024-01-30T01:51:52;5.70;;;5.20;;
3985;SDS011;2007;48.750;9.278;2024-01-30T01:54:23;6.80;;;5.10;;
3985;SDS011;2007;48.750;9.278;2024-01-30T01:56:54;6.60;;;5.33;;
3985;SDS011;2007;48.750;9.278;2024-01-30T01:59:22;6.57;;;5.40;;
3985;SDS011;2007;48.750;9.278;2024-01-30T02:01:52;6.73;;;5.03;;
3985;SDS011;2007;48.750;9.278;2024-01-30T02:04:22;6.10;;;5.50;;
3985;SDS011;2007;48.750;9.278;2024-01-30T02:06:51;7.87;;;5.70;;
3985;SDS011;2007;48.750;9.278;2024-01-30T02:09:19;7.67;;;5.90;;
3985;SDS011;2007;48.750;9.278;2024-01-30T02:11:47;6.73;;;4.57;;
3985;SDS011;2007;48.750;9.278;2024-01-30T02:14:17;5.53;;;4.97;;
3985;SDS011;2007;48.750;9.278;2024-01-30T02:16:45;6.27;;;5.17;;
3985;SDS011;2007;48.750;9.278;2024-01-30T02:19:13;6.50;;;5.50;;
3985;SDS011;2007;48.750;9.278;2024-01-30T02:21:42;6.10;;;4.80;;
3985;SDS011;2007;48.750;9.278;2024-01-30T02:24:11;6.00;;;5.20;;
3985;SDS011;2007;48.750;9.278;2024-01-30T02:26:39;7.83;;;5.70;;
3985;SDS011;2007;48.750;9.278;2024-01-30T02:29:07;7.83;;;5.67;;
3985;SDS011;2007;48.750;9.278;2024-01-30T02:31:35;6.97;;;5.77;;
3985;SDS011;2007;48.750;9.278;2024-01-30T02:34:03;9.43;;;5.70;;
3985;SDS011;2007;48.750;9.278;2024-01-30T02:36:31;7.37;;;5.53;;
3985;SDS011;2007;48.750;9.278;2024-01-30T02:39:00;6.90;;;5.47;;
3985;SDS011;2007;48.750;9.278;2024-01-30T02:41:29;7.87;;;6.10;;
3985;SDS011;2007;48.750;9.278;2024-01-30T02:43:57;8.43;;;5.30;;
3985;SDS011;2007;48.750;9.278;2024-01-30T02:46:25;5.73;;;5.20;;
3985;SDS011;2007;48.750;9.278;2024-01-30T02:48:53;7.90;;;5.30;;
3985;SDS011;2007;48.750;9.278;2024-01-30T02:51:21;6.07;;;5.30;;
3985;SDS011;2007;48.750;9.278;2024-01-30T02:53:49;5.90;;;5.30;;
3985;SDS011;2007;48.750;9.278;2024-01-30T02:56:18;5.80;;;5.20;;
3985;SDS011;2007;48.750;9.278;2024-01-30T02:58:46;5.70;;;4.83;;
3985;SDS011;2007;48.750;9.278;2024-01-30T03:01:14;5.47;;;4.37;;
3985;SDS011;2007;48.750;9.278;2024-01-30T03:03:42;5.27;;;4.77;;
3985;SDS011;2007;48.750;9.278;2024-01-30T03:06:10;7.40;;;5.30;;
3985;SDS011;2007;48.750;9.278;2024-01-30T03:08:39;7.33;;;5.53;;
3985;SDS011;2007;48.750;9.278;2024-01-30T03:11:07;5.93;;;5.13;;
3985;SDS011;2007;48.750;9.278;2024-01-30T03:13:36;7.47;;;6.17;;
3985;SDS011;2007;48.750;9.278;2024-01-30T03:16:04;7.67;;;5.10;;
3985;SDS011;2007;48.750;9.278;2024-01-30T03:18:33;4.73;;;4.30;;
3985;SDS011;2007;48.750;9.278;2024-01-30T03:21:01;6.40;;;5.50;;
3985;SDS011;2007;48.750;9.278;2024-01-30T03:23:29;6.37;;;5.47;;
3985;SDS011;2007;48.750;9.278;2024-01-30T03:25:58;6.70;;;5.67;;
3985;SDS011;2007;48.750;9.278;2024-01-30T03:28:26;5.80;;;5.20;;
3985;SDS011;2007;48.750;9.278;2024-01-30T03:30:56;7.03;;;5.40;;
3985;SDS011;2007;48.750;9.278;2024-01-30T03:33:24;7.13;;;5.40;;
3985;SDS011;2007;48.750;9.278;2024-01-30T03:35:52;6.80;;;5.50;;
3985;SDS011;2007;48.750;9.278;2024-01-30T03:38:19;6.40;;;5.10;;
3985;SDS011;2007;48.750;9.278;2024-01-30T03:40:47;5.80;;;5.10;;
3985;SDS011;2007;48.750;9.278;2024-01-30T03:43:15;5.70;;;5.10;;
3985;SDS011;2007;48.750;9.278;2024-01-30T03:45:43;8.43;;;4.93;;
3985;SDS011;2007;48.750;9.278;2024-01-30T03:48:13;6.90;;;5.70;;
3985;SDS011;2007;48.750;9.278;2024-01-30T03:50:41;6.83;;;5.30;;
3985;SDS011;2007;48.750;9.278;2024-01-30T03:53:08;6.20;;;5.40;;
3985;SDS011;2007;48.750;9.278;2024-01-30T03:55:36;5.93;;;5.33;;
3985;SDS011;2007;48.750;9.278;2024-01-30T03:58:04;7.13;;;5.53;;
3985;SDS011;2007;48.750;9.278;2024-01-30T04:00:32;6.57;;;5.43;;
3985;SDS011;2007;48.750;9.278;2024-01-30T04:03:00;6.07;;;5.30;;
3985;SDS011;2007;48.750;9.278;2024-01-30T04:05:30;6.40;;;5.17;;
3985;SDS011;2007;48.750;9.278;2024-01-30T04:07:58;5.93;;;5.30;;
3985;SDS011;2007;48.750;9.278;2024-01-30T04:10:26;5.90;;;5.40;;
3985;SDS011;2007;48.750;9.278;2024-01-30T04:12:54;5.20;;;4.70;;
3985;SDS011;2007;48.750;9.278;2024-01-30T04:15:22;5.60;;;5.03;;
3985;SDS011;2007;48.750;9.278;2024-01-30T04:17:50;6.00;;;5.17;;
3985;SDS011;2007;48.750;9.278;2024-01-30T04:20:19;5.60;;;5.00;;
3985;SDS011;2007;48.750;9.278;2024-01-30T04:22:48;5.33;;;4.83;;
3985;SDS011;2007;48.750;9.278;2024-01-30T04:25:16;5.50;;;5.00;;
3985;SDS011;2007;48.750;9.278;2024-01-30T04:27:44;6.27;;;5.20;;
3985;SDS011;2007;48.750;9.278;2024-01-30T04:30:12;6.30;;;5.10;;
3985;SDS011;2007;48.750;9.278;2024-01-30T04:32:41;6.00;;;4.90;;
3985;SDS011;2007;48.750;9.278;2024-01-30T04:35:09;6.73;;;5.60;;
3985;SDS011;2007;48.750;9.278;2024-01-30T04:37:38;6.43;;;5.83;;
3985;SDS011;2007;48.750;9.278;2024-01-30T04:40:08;5.97;;;5.33;;
3985;SDS011;2007;48.750;9.278;2024-01-30T04:42:36;5.27;;;4.77;;
3985;SDS011;2007;48.750;9.278;2024-01-30T04:45:05;6.30;;;5.67;;
3985;SDS011;2007;48.750;9.278;2024-01-30T04:47:34;6.40;;;4.80;;
3985;SDS011;2007;48.750;9.278;2024-01-30T04:50:02;7.00;;;5.87;;
3985;SDS011;2007;48.750;9.278;2024-01-30T04:52:31;8.20;;;6.13;;
3985;SDS011;2007;48.750;9.278;2024-01-30T04:54:59;6.37;;;5.60;;
3985;SDS011;2007;48.750;9.278;2024-01-30T04:57:28;7.10;;;5.50;;
3985;SDS011;2007;48.750;9.278;2024-01-30T04:59:57;7.50;;;5.67;;
3985;SDS011;2007;48.750;9.278;2024-01-30T05:02:25;6.43;;;5.77;;
3985;SDS011;2007;48.750;9.278;2024-01-30T05:04:53;8.03;;;5.23;;
3985;SDS011;2007;48.750;9.278;2024-01-30T05:07:21;8.27;;;5.97;;
3985;SDS011;2007;48.750;9.278;2024-01-30T05:09:49;7.77;;;5.00;;
3985;SDS011;2007;48.750;9.278;2024-01-30T05:12:18;5.33;;;4.60;;
3985;SDS011;2007;48.750;9.278;2024-01-30T05:14:48;5.03;;;4.53;;
3985;SDS011;2007;48.750;9.278;2024-01-30T05:17:16;6.30;;;4.90;;
3985;SDS011;2007;48.750;9.278;2024-01-30T05:19:44;6.43;;;5.20;;
3985;SDS011;2007;48.750;9.278;2024-01-30T05:22:12;6.30;;;5.10;;
3985;SDS011;2007;48.750;9.278;2024-01-30T05:24:42;6.77;;;5.37;;
3985;SDS011;2007;48.750;9.278;2024-01-30T05:27:10;5.93;;;4.50;;
3985;SDS011;2007;48.750;9.278;2024-01-30T05:29:39;6.73;;;5.10;;
3985;SDS011;2007;48.750;9.278;2024-01-30T05:32:09;7.03;;;5.37;;
3985;SDS011;2007;48.750;9.278;2024-01-30T05:34:37;4.93;;;4.53;;
3985;SDS011;2007;48.750;9.278;2024-01-30T05:37:06;6.10;;;5.50;;
3985;SDS011;2007;48.750;9.278;2024-01-30T05:39:34;5.60;;;4.80;;
3985;SDS011;2007;48.750;9.278;2024-01-30T05:42:02;6.90;;;5.33;;
3985;SDS011;2007;48.750;9.278;2024-01-30T05:44:30;7.83;;;5.23;;
3985;SDS011;2007;48.750;9.278;2024-01-30T05:46:58;5.60;;;4.97;;
3985;SDS011;2007;48.750;9.278;2024-01-30T05:49:27;5.53;;;5.03;;
3985;SDS011;2007;48.750;9.278;2024-01-30T05:51:55;5.73;;;4.97;;
3985;SDS011;2007;48.750;9.278;2024-01-30T05:54:24;5.17;;;4.67;;
3985;SDS011;2007;48.750;9.278;2024-01-30T05:56:52;6.33;;;5.67;;
3985;SDS011;2007;48.750;9.278;2024-01-30T05:59:19;6.00;;;5.00;;
3985;SDS011;2007;48.750;9.278;2024-01-30T06:01:48;6.33;;;5.40;;
3985;SDS011;2007;48.750;9.278;2024-01-30T06:04:16;6.13;;;5.47;;
3985;SDS011;2007;48.750;9.278;2024-01-30T06:06:45;5.83;;;5.30;;
3985;SDS011;2007;48.750;9.278;2024-01-30T06:09:13;6.13;;;5.50;;
3985;SDS011;2007;48.750;9.278;2024-01-30T06:11:41;6.33;;;5.10;;
3985;SDS011;2007;48.750;9.278;2024-01-30T06:14:09;6.63;;;5.20;;
3985;SDS011;2007;48.750;9.278;2024-01-30T06:16:37;6.17;;;5.57;;
3985;SDS011;2007;48.750;9.278;2024-01-30T06:19:05;6.40;;;5.40;;
3985;SDS011;2007;48.750;9.278;2024-01-30T06:21:33;6.27;;;5.67;;
3985;SDS011;2007;48.750;9.278;2024-01-30T06:24:04;6.43;;;4.97;;
3985;SDS011;2007;48.750;9.278;2024-01-30T06:26:32;7.10;;;5.70;;
3985;SDS011;2007;48.750;9.278;2024-01-30T06:29:01;5.00;;;4.50;;
3985;SDS011;2007;48.750;9.278;2024-01-30T06:31:29;6.20;;;5.60;;
3985;SDS011;2007;48.750;9.278;2024-01-30T06:33:57;5.50;;;5.00;;
3985;SDS011;2007;48.750;9.278;2024-01-30T06:36:28;7.53;;;5.37;;
3985;SDS011;2007;48.750;9.278;2024-01-30T06:38:56;6.30;;;5.23;;
3985;SDS011;2007;48.750;9.278;2024-01-30T06:41:25;7.47;;;5.20;;
3985;SDS011;2007;48.750;9.278;2024-01-30T06:43:53;6.53;;;5.40;;
3985;SDS011;2007;48.750;9.278;2024-01-30T06:46:21;7.03;;;5.40;;
3985;SDS011;2007;48.750;9.278;2024-01-30T06:48:49;6.03;;;5.30;;
3985;SDS011;2007;48.750;9.278;2024-01-30T06:51:17;6.60;;;5.60;;
3985;SDS011;2007;48.750;9.278;2024-01-30T06:53:45;6.27;;;5.20;;
3985;SDS011;2007;48.750;9.278;2024-01-30T06:56:13;6.80;;;5.40;;
3985;SDS011;2007;48.750;9.278;2024-01-30T06:58:42;6.70;;;5.93;;
3985;SDS011;2007;48.750;9.278;2024-01-30T07:01:10;8.03;;;5.13;;
3985;SDS011;2007;48.750;9.278;2024-01-30T07:03:38;7.57;;;5.80;;
3985;SDS011;2007;48.750;9.278;2024-01-30T07:06:06;6.23;;;5.10;;
3985;SDS011;2007;48.750;9.278;2024-01-30T07:08:34;5.63;;;4.50;;
3985;SDS011;2007;48.750;9.278;2024-01-30T07:11:03;5.17;;;4.67;;
3985;SDS011;2007;48.750;9.278;2024-01-30T07:13:31;6.27;;;4.87;;
3985;SDS011;2007;48.750;9.278;2024-01-30T07:16:01;5.63;;;5.10;;
3985;SDS011;2007;48.750;9.278;2024-01-30T07:18:29;6.63;;;5.40;;
3985;SDS011;2007;48.750;9.278;2024-01-30T07:20:57;6.10;;;4.90;;
3985;SDS011;2007;48.750;9.278;2024-01-30T07:23:25;5.67;;;4.97;;
3985;SDS011;2007;48.750;9.278;2024-01-30T07:25:53;6.50;;;5.43;;
3985;SDS011;2007;48.750;9.278;2024-01-30T07:28:21;6.47;;;4.87;;
3985;SDS011;2007;48.750;9.278;2024-01-30T07:30:49;6.43;;;5.23;;
3985;SDS011;2007;48.750;9.278;2024-01-30T07:33:18;6.03;;;4.73;;
3985;SDS011;2007;48.750;9.278;2024-01-30T07:35:46;5.80;;;5.20;;
3985;SDS011;2007;48.750;9.278;2024-01-30T07:38:14;6.17;;;5.53;;
3985;SDS011;2007;48.750;9.278;2024-01-30T07:40:42;7.43;;;5.93;;
3985;SDS011;2007;48.750;9.278;2024-01-30T07:43:10;6.17;;;5.03;;
3985;SDS011;2007;48.750;9.278;2024-01-30T07:45:39;5.80;;;5.30;;
3985;SDS011;2007;48.750;9.278;2024-01-30T07:48:07;6.30;;;5.40;;
3985;SDS011;2007;48.750;9.278;2024-01-30T07:50:37;6.07;;;5.57;;
3985;SDS011;2007;48.750;9.278;2024-01-30T07:53:05;6.53;;;5.37;;
3985;SDS011;2007;48.750;9.278;2024-01-30T07:55:33;8.97;;;6.10;;
3985;SDS011;2007;48.750;9.278;2024-01-30T07:58:01;6.20;;;5.03;;
3985;SDS011;2007;48.750;9.278;2024-01-30T08:00:31;6.17;;;5.43;;
3985;SDS011;2007;48.750;9.278;2024-01-30T08:02:59;5.90;;;5.30;;
3985;SDS011;2007;48.750;9.278;2024-01-30T08:05:27;5.40;;;4.90;;
3985;SDS011;2007;48.750;9.278;2024-01-30T08:07:56;5.13;;;4.50;;
3985;SDS011;2007;48.750;9.278;2024-01-30T08:10:24;7.40;;;5.10;;
3985;SDS011;2007;48.750;9.278;2024-01-30T08:12:52;7.63;;;5.10;;
3985;SDS011;2007;48.750;9.278;2024-01-30T08:15:20;7.93;;;5.27;;
3985;SDS011;2007;48.750;9.278;2024-01-30T08:17:48;6.40;;;5.00;;
3985;SDS011;2007;48.750;9.278;2024-01-30T08:20:22;7.00;;;4.70;;
3985;SDS011;2007;48.750;9.278;2024-01-30T08:22:50;6.57;;;5.87;;
3985;SDS011;2007;48.750;9.278;2024-01-30T08:25:19;8.67;;;5.37;;
3985;SDS011;2007;48.750;9.278;2024-01-30T08:27:48;5.40;;;4.83;;
3985;SDS011;2007;48.750;9.278;2024-01-30T08:30:16;6.40;;;4.83;;
3985;SDS011;2007;48.750;9.278;2024-01-30T08:32:44;4.93;;;4.43;;
3985;SDS011;2007;48.750;9.278;2024-01-30T08:35:13;6.30;;;5.70;;
3985;SDS011;2007;48.750;9.278;2024-01-30T08:37:42;5.90;;;4.80;;
3985;SDS011;2007;48.750;9.278;2024-01-30T08:40:10;5.70;;;5.03;;
3985;SDS011;2007;48.750;9.278;2024-01-30T08:42:42;6.03;;;5.23;;
3985;SDS011;2007;48.750;9.278;2024-01-30T08:45:10;8.70;;;5.80;;
3985;SDS011;2007;48.750;9.278;2024-01-30T08:47:39;5.23;;;4.77;;
3985;SDS011;2007;48.750;9.278;2024-01-30T08:50:08;7.20;;;5.30;;
3985;SDS011;2007;48.750;9.278;2024-01-30T08:52:36;5.70;;;4.90;;
3985;SDS011;2007;48.750;9.278;2024-01-30T08:55:04;6.53;;;5.77;;
3985;SDS011;2007;48.750;9.278;2024-01-30T08:57:33;7.07;;;5.33;;
3985;SDS011;2007;48.750;9.278;2024-01-30T09:00:03;6.63;;;5.97;;
3985;SDS011;2007;48.750;9.278;2024-01-30T09:02:33;6.17;;;4.90;;
3985;SDS011;2007;48.750;9.278;2024-01-30T09:05:01;6.60;;;5.13;;
3985;SDS011;2007;48.750;9.278;2024-01-30T09:07:30;5.23;;;4.83;;
3985;SDS011;2007;48.750;9.278;2024-01-30T09:09:58;5.67;;;4.83;;
3985;SDS011;2007;48.750;9.278;2024-01-30T09:12:26;6.90;;;5.10;;
3985;SDS011;2007;48.750;9.278;2024-01-30T09:14:54;6.70;;;5.30;;
3985;SDS011;2007;48.750;9.278;2024-01-30T09:17:23;7.83;;;5.70;;
3985;SDS011;2007;48.750;9.278;2024-01-30T09:19:51;5.50;;;4.87;;
3985;SDS011;2007;48.750;9.278;2024-01-30T09:22:19;6.87;;;4.53;;
3985;SDS011;2007;48.750;9.278;2024-01-30T09:24:47;5.37;;;4.83;;
3985;SDS011;2007;48.750;9.278;2024-01-30T09:27:15;5.27;;;4.43;;
3985;SDS011;2007;48.750;9.278;2024-01-30T09:29:43;5.20;;;4.70;;
3985;SDS011;2007;48.750;9.278;2024-01-30T09:32:11;6.37;;;5.77;;
3985;SDS011;2007;48.750;9.278;2024-01-30T09:34:41;6.20;;;5.10;;
3985;SDS011;2007;48.750;9.278;2024-01-30T09:37:09;5.23;;;4.70;;
3985;SDS011;2007;48.750;9.278;2024-01-30T09:39:37;5.50;;;4.57;;
3985;SDS011;2007;48.750;9.278;2024-01-30T09:42:07;5.53;;;4.93;;
3985;SDS011;2007;48.750;9.278;2024-01-30T09:44:41;6.57;;;5.63;;
3985;SDS011;2007;48.750;9.278;2024-01-30T09:47:11;5.20;;;4.70;;
3985;SDS011;2007;48.750;9.278;2024-01-30T09:49:40;5.63;;;5.13;;
3985;SDS011;2007;48.750;9.278;2024-01-30T09:52:10;5.10;;;4.60;;
3985;SDS011;2007;48.750;9.278;2024-01-30T09:54:39;6.60;;;4.70;;
3985;SDS011;2007;48.750;9.278;2024-01-30T09:57:09;4.90;;;4.37;;
3985;SDS011;2007;48.750;9.278;2024-01-30T09:59:38;8.10;;;4.97;;
3985;SDS011;2007;48.750;9.278;2024-01-30T10:02:08;6.57;;;4.60;;
3985;SDS011;2007;48.750;9.278;2024-01-30T10:04:37;4.53;;;4.10;;
3985;SDS011;2007;48.750;9.278;2024-01-30T10:07:07;5.47;;;4.97;;
3985;SDS011;2007;48.750;9.278;2024-01-30T10:09:37;5.93;;;4.77;;
3985;SDS011;2007;48.750;9.278;2024-01-30T10:12:04;5.50;;;4.93;;
3985;SDS011;2007;48.750;9.278;2024-01-30T10:14:33;6.60;;;5.00;;
3985;SDS011;2007;48.750;9.278;2024-01-30T10:17:05;4.67;;;4.27;;
3985;SDS011;2007;48.750;9.278;2024-01-30T10:19:46;6.17;;;5.20;;
3985;SDS011;2007;48.750;9.278;2024-01-30T10:22:16;5.20;;;4.70;;
3985;SDS011;2007;48.750;9.278;2024-01-30T10:24:44;6.23;;;5.63;;
3985;SDS011;2007;48.750;9.278;2024-01-30T10:27:12;4.97;;;4.47;;
3985;SDS011;2007;48.750;9.278;2024-01-30T10:29:40;5.20;;;4.03;;
3985;SDS011;2007;48.750;9.278;2024-01-30T10:32:08;5.33;;;4.83;;
3985;SDS011;2007;48.750;9.278;2024-01-30T10:34:36;5.40;;;4.90;;
3985;SDS011;2007;48.750;9.278;2024-01-30T10:37:07;5.47;;;4.90;;
3985;SDS011;2007;48.750;9.278;2024-01-30T10:39:41;5.33;;;4.80;;
3985;SDS011;2007;48.750;9.278;2024-01-30T10:42:11;6.30;;;4.47;;
3985;SDS011;2007;48.750;9.278;2024-01-30T10:44:43;7.13;;;5.97;;
3985;SDS011;2007;48.750;9.278;2024-01-30T10:47:16;5.13;;;4.60;;
3985;SDS011;2007;48.750;9.278;2024-01-30T10:49:49;5.20;;;4.50;;
3985;SDS011;2007;48.750;9.278;2024-01-30T10:52:18;5.50;;;4.90;;
3985;SDS011;2007;48.750;9.278;2024-01-30T10:54:49;4.97;;;4.47;;
3985;SDS011;2007;48.750;9.278;2024-01-30T10:57:18;6.13;;;4.40;;
3985;SDS011;2007;48.750;9.278;2024-01-30T10:59:48;6.50;;;5.20;;
3985;SDS011;2007;48.750;9.278;2024-01-30T11:02:19;6.97;;;4.47;;
3985;SDS011;2007;48.750;9.278;2024-01-30T11:04:47;5.13;;;4.63;;
3985;SDS011;2007;48.750;9.278;2024-01-30T11:07:16;4.63;;;4.23;;
3985;SDS011;2007;48.750;9.278;2024-01-30T11:10:00;6.27;;;4.50;;
3985;SDS011;2007;48.750;9.278;2024-01-30T11:12:31;5.03;;;4.57;;
3985;SDS011;2007;48.750;9.278;2024-01-30T11:15:01;5.23;;;4.40;;
3985;SDS011;2007;48.750;9.278;2024-01-30T11:17:40;6.80;;;4.60;;
3985;SDS011;2007;48.750;9.278;2024-01-30T11:20:14;6.60;;;5.20;;
3985;SDS011;2007;48.750;9.278;2024-01-30T11:22:45;5.50;;;4.47;;
3985;SDS011;2007;48.750;9.278;2024-01-30T11:25:16;4.50;;;4.10;;
3985;SDS011;2007;48.750;9.278;2024-01-30T11:27:46;5.90;;;4.80;;
3985;SDS011;2007;48.750;9.278;2024-01-30T11:30:23;5.60;;;5.10;;
3985;SDS011;2007;48.750;9.278;2024-01-30T11:32:58;5.87;;;4.40;;
3985;SDS011;2007;48.750;9.278;2024-01-30T11:35:28;5.00;;;4.23;;
3985;SDS011;2007;48.750;9.278;2024-01-30T11:37:58;4.13;;;3.70;;
3985;SDS011;2007;48.750;9.278;2024-01-30T11:40:28;4.70;;;4.10;;
3985;SDS011;2007;48.750;9.278;2024-01-30T11:42:58;5.60;;;4.40;;
3985;SDS011;2007;48.750;9.278;2024-01-30T11:45:27;5.57;;;4.73;;
3985;SDS011;2007;48.750;9.278;2024-01-30T11:47:55;4.90;;;4.40;;
3985;SDS011;2007;48.750;9.278;2024-01-30T11:50:26;6.30;;;4.17;;
3985;SDS011;2007;48.750;9.278;2024-01-30T11:52:56;5.23;;;3.97;;
3985;SDS011;2007;48.750;9.278;2024-01-30T11:55:24;6.27;;;4.40;;
3985;SDS011;2007;48.750;9.278;2024-01-30T11:57:56;5.33;;;4.83;;
3985;SDS011;2007;48.750;9.278;2024-01-30T12:00:25;4.97;;;4.50;;
3985;SDS011;2007;48.750;9.278;2024-01-30T12:02:57;5.67;;;4.40;;
3985;SDS011;2007;48.750;9.278;2024-01-30T12:05:27;4.07;;;3.67;;
3985;SDS011;2007;48.750;9.278;2024-01-30T12:07:57;4.60;;;4.00;;
3985;SDS011;2007;48.750;9.278;2024-01-30T12:10:27;4.47;;;4.07;;
3985;SDS011;2007;48.750;9.278;2024-01-30T12:12:58;4.40;;;4.00;;
3985;SDS011;2007;48.750;9.278;2024-01-30T12:15:26;4.13;;;3.47;;
3985;SDS011;2007;48.750;9.278;2024-01-30T12:18:03;6.30;;;4.33;;
3985;SDS011;2007;48.750;9.278;2024-01-30T12:20:31;4.07;;;3.60;;
3985;SDS011;2007;48.750;9.278;2024-01-30T12:23:00;6.00;;;4.67;;
3985;SDS011;2007;48.750;9.278;2024-01-30T12:25:28;5.07;;;4.17;;
3985;SDS011;2007;48.750;9.278;2024-01-30T12:27:58;6.07;;;4.43;;
3985;SDS011;2007;48.750;9.278;2024-01-30T12:30:27;4.47;;;4.03;;
3985;SDS011;2007;48.750;9.278;2024-01-30T12:32:56;4.60;;;4.17;;
3985;SDS011;2007;48.750;9.278;2024-01-30T12:35:24;5.30;;;4.40;;
3985;SDS011;2007;48.750;9.278;2024-01-30T12:37:57;4.33;;;3.93;;
3985;SDS011;2007;48.750;9.278;2024-01-30T12:40:25;5.53;;;4.30;;
3985;SDS011;2007;48.750;9.278;2024-01-30T12:42:53;3.97;;;3.53;;
3985;SDS011;2007;48.750;9.278;2024-01-30T12:45:23;5.37;;;4.33;;
3985;SDS011;2007;48.750;9.278;2024-01-30T12:47:52;6.03;;;4.70;;
3985;SDS011;2007;48.750;9.278;2024-01-30T12:50:21;5.93;;;4.50;;
3985;SDS011;2007;48.750;9.278;2024-01-30T12:52:49;4.47;;;4.00;;
3985;SDS011;2007;48.750;9.278;2024-01-30T12:55:18;4.87;;;3.87;;
3985;SDS011;2007;48.750;9.278;2024-01-30T12:57:46;4.37;;;3.97;;
3985;SDS011;2007;48.750;9.278;2024-01-30T13:00:14;4.83;;;4.00;;
3985;SDS011;2007;48.750;9.278;2024-01-30T13:02:45;4.33;;;3.93;;
3985;SDS011;2007;48.750;9.278;2024-01-30T13:05:14;4.97;;;4.10;;
3985;SDS011;2007;48.750;9.278;2024-01-30T13:07:43;4.97;;;4.47;;
3985;SDS011;2007;48.750;9.278;2024-01-30T13:10:11;4.90;;;3.70;;
3985;SDS011;2007;48.750;9.278;2024-01-30T13:12:40;4.63;;;4.00;;
3985;SDS011;2007;48.750;9.278;2024-01-30T13:15:08;4.00;;;3.60;;
3985;SDS011;2007;48.750;9.278;2024-01-30T13:17:37;4.83;;;3.90;;
3985;SDS011;2007;48.750;9.278;2024-01-30T13:20:08;4.20;;;3.80;;
3985;SDS011;2007;48.750;9.278;2024-01-30T13:22:38;5.13;;;3.80;;
3985;SDS011;2007;48.750;9.278;2024-01-30T13:25:06;4.27;;;3.87;;
3985;SDS011;2007;48.750;9.278;2024-01-30T13:27:35;5.43;;;4.47;;
3985;SDS011;2007;48.750;9.278;2024-01-30T13:30:04;4.13;;;3.73;;
3985;SDS011;2007;48.750;9.278;2024-01-30T13:32:34;5.30;;;4.20;;
3985;SDS011;2007;48.750;9.278;2024-01-30T13:35:02;4.00;;;3.60;;
3985;SDS011;2007;48.750;9.278;2024-01-30T13:37:32;6.07;;;3.97;;
3985;SDS011;2007;48.750;9.278;2024-01-30T13:40:01;4.83;;;4.33;;
3985;SDS011;2007;48.750;9.278;2024-01-30T13:42:34;4.00;;;3.60;;
3985;SDS011;2007;48.750;9.278;2024-01-30T13:45:02;5.03;;;3.60;;
3985;SDS011;2007;48.750;9.278;2024-01-30T13:47:30;5.57;;;4.40;;
3985;SDS011;2007;48.750;9.278;2024-01-30T13:49:58;5.37;;;4.20;;
3985;SDS011;2007;48.750;9.278;2024-01-30T13:52:26;3.80;;;3.43;;
3985;SDS011;2007;48.750;9.278;2024-01-30T13:55:05;3.87;;;3.57;;
3985;SDS011;2007;48.750;9.278;2024-01-30T13:57:33;4.80;;;3.80;;
3985;SDS011;2007;48.750;9.278;2024-01-30T14:00:02;4.80;;;4.17;;
3985;SDS011;2007;48.750;9.278;2024-01-30T14:02:33;4.00;;;3.63;;
3985;SDS011;2007;48.750;9.278;2024-01-30T14:05:01;3.87;;;3.47;;
3985;SDS011;2007;48.750;9.278;2024-01-30T14:07:30;4.70;;;3.97;;
3985;SDS011;2007;48.750;9.278;2024-01-30T14:09:59;6.13;;;3.70;;
3985;SDS011;2007;48.750;9.278;2024-01-30T14:12:30;4.40;;;3.93;;
3985;SDS011;2007;48.750;9.278;2024-01-30T14:14:58;4.30;;;3.73;;
3985;SDS011;2007;48.750;9.278;2024-01-30T14:17:28;4.00;;;3.60;;
3985;SDS011;2007;48.750;9.278;2024-01-30T14:19:56;3.77;;;3.30;;
3985;SDS011;2007;48.750;9.278;2024-01-30T14:22:24;3.57;;;3.27;;
3985;SDS011;2007;48.750;9.278;2024-01-30T14:24:52;3.50;;;3.17;;
3985;SDS011;2007;48.750;9.278;2024-01-30T14:27:20;5.20;;;4.00;;
3985;SDS011;2007;48.750;9.278;2024-01-30T14:29:50;3.70;;;3.40;;
3985;SDS011;2007;48.750;9.278;2024-01-30T14:32:18;4.47;;;3.67;;
3985;SDS011;2007;48.750;9.278;2024-01-30T14:34:46;5.30;;;3.40;;
3985;SDS011;2007;48.750;9.278;2024-01-30T14:37:14;3.97;;;3.40;;
3985;SDS011;2007;48.750;9.278;2024-01-30T14:39:42;4.40;;;3.83;;
3985;SDS011;2007;48.750;9.278;2024-01-30T14:42:11;4.43;;;3.93;;
3985;SDS011;2007;48.750;9.278;2024-01-30T14:44:39;3.60;;;3.30;;
3985;SDS011;2007;48.750;9.278;2024-01-30T14:47:08;3.57;;;3.27;;
3985;SDS011;2007;48.750;9.278;2024-01-30T14:49:36;4.13;;;3.33;;
3985;SDS011;2007;48.750;9.278;2024-01-30T14:52:05;4.13;;;3.73;;
3985;SDS011;2007;48.750;9.278;2024-01-30T14:54:33;4.77;;;3.77;;
3985;SDS011;2007;48.750;9.278;2024-01-30T14:57:01;4.77;;;3.47;;
3985;SDS011;2007;48.750;9.278;2024-01-30T14:59:29;4.17;;;3.80;;
3985;SDS011;2007;48.750;9.278;2024-01-30T15:01:57;4.47;;;3.13;;
3985;SDS011;2007;48.750;9.278;2024-01-30T15:04:26;4.07;;;3.50;;
3985;SDS011;2007;48.750;9.278;2024-01-30T15:06:54;3.97;;;3.60;;
3985;SDS011;2007;48.750;9.278;2024-01-30T15:09:22;3.90;;;3.50;;
3985;SDS011;2007;48.750;9.278;2024-01-30T15:11:55;3.40;;;3.10;;
3985;SDS011;2007;48.750;9.278;2024-01-30T15:14:23;3.90;;;3.50;;
3985;SDS011;2007;48.750;9.278;2024-01-30T15:16:52;3.30;;;3.00;;
3985;SDS011;2007;48.750;9.278;2024-01-30T15:19:20;4.43;;;4.07;;
3985;SDS011;2007;48.750;9.278;2024-01-30T15:21:49;4.17;;;3.40;;
3985;SDS011;2007;48.750;9.278;2024-01-30T15:24:17;4.40;;;3.90;;